createdAt,value
2016-11-05T00:00:45.971Z,19.49
2016-11-05T00:01:57.477Z,19.52
2016-11-05T00:03:09.792Z,19.67
2016-11-05T00:04:20.586Z,19.56
2016-11-05T00:05:31.529Z,19.54
2016-11-05T00:06:43.452Z,19.62
2016-11-05T00:07:56.234Z,19.51
2016-11-05T00:09:07.568Z,19.54
2016-11-05T00:10:19.011Z,19.41
2016-11-05T00:11:29.810Z,19.49
2016-11-05T00:12:42.441Z,19.48
2016-11-05T00:13:53.969Z,19.49
2016-11-05T00:15:06.492Z,19.49
2016-11-05T00:16:18.889Z,19.58
2016-11-05T00:17:30.718Z,19.47
2016-11-05T00:18:42.503Z,19.45
2016-11-05T00:19:53.745Z,19.48
2016-11-05T00:21:05.361Z,19.41
2016-11-05T00:22:16.952Z,19.3
2016-11-05T00:23:28.309Z,19.39
2016-11-05T00:24:39.330Z,19.45
2016-11-05T00:25:51.077Z,19.36
2016-11-05T00:27:03.065Z,19.44
2016-11-05T00:28:14.237Z,19.45
2016-11-05T00:29:26.247Z,19.44
2016-11-05T00:30:36.408Z,19.47
2016-11-05T00:31:46.668Z,19.48
2016-11-05T00:32:58.247Z,19.45
2016-11-05T00:34:10.429Z,19.47
2016-11-05T00:35:22.086Z,19.47
2016-11-05T00:36:34.872Z,19.47
2016-11-05T00:37:46.423Z,19.55
2016-11-05T00:38:58.304Z,19.56
2016-11-05T00:40:09.115Z,19.51
2016-11-05T00:41:19.826Z,19.51
2016-11-05T00:42:30.516Z,19.66
2016-11-05T00:43:43.184Z,19.69
2016-11-05T00:44:55.229Z,19.63
2016-11-05T00:46:06.674Z,19.55
2016-11-05T00:47:18.400Z,19.48
2016-11-05T00:48:29.955Z,19.55
2016-11-05T00:49:41.245Z,19.48
2016-11-05T00:50:52.290Z,19.51
2016-11-05T00:52:04.015Z,19.48
2016-11-05T00:53:15.442Z,19.45
2016-11-05T00:54:27.912Z,19.44
2016-11-05T00:55:39.191Z,19.33
2016-11-05T00:56:50.612Z,19.22
2016-11-05T00:58:01.828Z,19.4
2016-11-05T00:59:14.588Z,19.4
2016-11-05T01:00:26.803Z,19.51
2016-11-05T01:01:38.767Z,19.47
2016-11-05T01:02:50.421Z,19.51
2016-11-05T01:04:01.815Z,19.49
2016-11-05T01:05:14.155Z,19.51
2016-11-05T01:06:24.710Z,19.45
2016-11-05T01:07:36.051Z,19.27
2016-11-05T01:08:48.693Z,19.36
2016-11-05T01:10:01.443Z,19.34
2016-11-05T01:11:14.254Z,19.48
2016-11-05T01:12:26.791Z,19.49
2016-11-05T01:13:38.069Z,19.48
2016-11-05T01:14:48.513Z,19.52
2016-11-05T01:16:00.454Z,19.47
2016-11-05T01:17:12.024Z,19.44
2016-11-05T01:18:24.233Z,19.4
2016-11-05T01:19:36.093Z,19.47
2016-11-05T01:20:48.361Z,19.48
2016-11-05T01:22:00.084Z,19.45
2016-11-05T01:23:11.513Z,19.44
2016-11-05T01:24:24.681Z,19.31
2016-11-05T01:25:36.594Z,19.36
2016-11-05T01:26:48.710Z,19.36
2016-11-05T01:27:59.397Z,19.44
2016-11-05T01:29:12.098Z,19.4
2016-11-05T01:30:24.406Z,19.51
2016-11-05T01:31:36.979Z,19.52
2016-11-05T01:32:49.098Z,19.47
2016-11-05T01:34:00.749Z,19.45
2016-11-05T01:35:12.376Z,19.48
2016-11-05T01:36:23.570Z,19.69
2016-11-05T01:37:34.451Z,19.66
2016-11-05T01:38:47.215Z,19.69
2016-11-05T01:39:59.451Z,19.71
2016-11-05T01:41:10.917Z,19.82
2016-11-05T01:42:23.698Z,19.86
2016-11-05T01:43:35.782Z,19.86
2016-11-05T01:44:47.382Z,19.71
2016-11-05T01:45:58.927Z,19.73
2016-11-05T01:47:12.167Z,19.52
2016-11-05T01:48:23.898Z,19.49
2016-11-05T01:49:36.021Z,19.51
2016-11-05T01:50:48.213Z,19.51
2016-11-05T01:52:00.805Z,19.48
2016-11-05T01:53:11.794Z,19.45
2016-11-05T01:54:23.748Z,19.33
2016-11-05T01:55:35.687Z,19.31
2016-11-05T01:56:48.177Z,19.44
2016-11-05T01:57:59.782Z,19.44
2016-11-05T01:59:12.097Z,19.47
2016-11-05T02:00:24.860Z,19.41
2016-11-05T02:01:37.573Z,19.39
2016-11-05T02:02:49.472Z,19.41
2016-11-05T02:04:01.367Z,19.51
2016-11-05T02:05:13.278Z,19.51
2016-11-05T02:06:24.417Z,19.62
2016-11-05T02:07:36.498Z,19.47
2016-11-05T02:08:48.584Z,19.51
2016-11-05T02:09:58.357Z,19.54
2016-11-05T02:11:09.527Z,19.47
2016-11-05T02:12:21.084Z,19.47
2016-11-05T02:13:32.282Z,19.66
2016-11-05T02:14:44.379Z,19.63
2016-11-05T02:15:55.221Z,19.48
2016-11-05T02:17:07.325Z,19.52
2016-11-05T02:18:19.910Z,19.44
2016-11-05T02:19:31.979Z,19.49
2016-11-05T02:20:43.733Z,19.31
2016-11-05T02:21:55.631Z,19.41
2016-11-05T02:23:07.718Z,19.49
2016-11-05T02:24:19.676Z,19.51
2016-11-05T02:25:32.581Z,19.49
2016-11-05T02:26:44.174Z,19.51
2016-11-05T02:27:55.277Z,19.45
2016-11-05T02:29:06.861Z,19.49
2016-11-05T02:30:18.492Z,19.47
2016-11-05T02:31:30.935Z,19.48
2016-11-05T02:32:42.190Z,19.49
2016-11-05T02:33:54.419Z,19.52
2016-11-05T02:35:05.479Z,19.51
2016-11-05T02:36:16.929Z,19.51
2016-11-05T02:37:27.407Z,19.37
2016-11-05T02:38:39.651Z,19.41
2016-11-05T02:39:50.346Z,19.41
2016-11-05T02:41:02.364Z,19.34
2016-11-05T02:42:15.126Z,19.39
2016-11-05T02:43:27.911Z,19.31
2016-11-05T02:44:40.319Z,19.4
2016-11-05T02:45:52.528Z,19.39
2016-11-05T02:47:05.188Z,19.45
2016-11-05T02:48:17.525Z,19.31
2016-11-05T02:49:29.749Z,19.37
2016-11-05T02:50:40.543Z,19.41
2016-11-05T02:51:53.060Z,19.49
2016-11-05T02:53:04.806Z,19.45
2016-11-05T02:54:17.558Z,19.47
2016-11-05T02:55:29.666Z,19.51
2016-11-05T02:56:41.594Z,19.51
2016-11-05T02:57:53.080Z,19.27
2016-11-05T02:59:05.125Z,19.19
2016-11-05T03:00:16.051Z,19.21
2016-11-05T03:01:27.313Z,19.31
2016-11-05T03:02:38.469Z,19.34
2016-11-05T03:03:49.203Z,19.37
2016-11-05T03:05:01.310Z,19.36
2016-11-05T03:06:13.582Z,19.39
2016-11-05T03:07:25.653Z,19.36
2016-11-05T03:08:36.388Z,19.18
2016-11-05T03:09:48.254Z,19.36
2016-11-05T03:10:58.603Z,19.31
2016-11-05T03:12:10.487Z,19.29
2016-11-05T03:13:21.976Z,19.36
2016-11-05T03:14:34.063Z,19.34
2016-11-05T03:15:45.725Z,19.29
2016-11-05T03:16:57.412Z,19.24
2016-11-05T03:18:09.818Z,19.14
2016-11-05T03:19:21.719Z,18.9
2016-11-05T03:20:34.179Z,18.84
2016-11-05T03:21:47.239Z,18.77
2016-11-05T03:22:58.390Z,18.75
2016-11-05T03:24:10.976Z,18.86
2016-11-05T03:25:22.245Z,18.83
2016-11-05T03:26:34.403Z,18.81
2016-11-05T03:27:46.904Z,18.9
2016-11-05T03:28:58.681Z,18.93
2016-11-05T03:30:11.355Z,18.99
2016-11-05T03:31:23.084Z,19.18
2016-11-05T03:32:34.788Z,19.15
2016-11-05T03:33:45.452Z,19.08
2016-11-05T03:34:57.476Z,19.12
2016-11-05T03:36:09.824Z,19.18
2016-11-05T03:37:22.322Z,19.07
2016-11-05T03:38:34.072Z,18.99
2016-11-05T03:39:45.478Z,19.07
2016-11-05T03:40:57.361Z,18.88
2016-11-05T03:42:08.946Z,18.9
2016-11-05T03:43:21.495Z,18.88
2016-11-05T03:44:33.543Z,18.74
2016-11-05T03:45:46.019Z,18.75
2016-11-05T03:46:58.179Z,18.74
2016-11-05T03:48:09.266Z,18.84
2016-11-05T03:49:20.583Z,18.7
2016-11-05T03:50:31.395Z,18.74
2016-11-05T03:51:42.976Z,18.66
2016-11-05T03:52:54.985Z,18.65
2016-11-05T03:54:06.284Z,18.75
2016-11-05T03:55:18.052Z,18.81
2016-11-05T03:56:30.239Z,18.81
2016-11-05T03:57:41.830Z,18.73
2016-11-05T03:58:52.261Z,18.74
2016-11-05T04:00:04.371Z,18.74
2016-11-05T04:01:17.657Z,18.88
2016-11-05T04:02:30.843Z,18.73
2016-11-05T04:03:42.938Z,18.86
2016-11-05T04:04:54.995Z,18.88
2016-11-05T04:06:06.525Z,18.71
2016-11-05T04:07:19.159Z,18.74
2016-11-05T04:08:30.782Z,18.74
2016-11-05T04:09:43.434Z,18.75
2016-11-05T04:10:54.156Z,18.8
2016-11-05T04:12:04.547Z,18.8
2016-11-05T04:13:15.374Z,18.77
2016-11-05T04:14:28.028Z,18.86
2016-11-05T04:15:40.458Z,18.89
2016-11-05T04:16:51.592Z,18.71
2016-11-05T04:18:03.729Z,18.66
2016-11-05T04:19:14.252Z,18.73
2016-11-05T04:20:25.708Z,18.84
2016-11-05T04:21:37.802Z,18.75
2016-11-05T04:22:49.855Z,18.83
2016-11-05T04:24:02.553Z,18.78
2016-11-05T04:25:13.664Z,18.84
2016-11-05T04:26:26.434Z,18.92
2016-11-05T04:27:38.777Z,18.83
2016-11-05T04:28:49.783Z,18.74
2016-11-05T04:30:01.940Z,18.84
2016-11-05T04:31:13.046Z,18.9
2016-11-05T04:32:24.762Z,18.88
2016-11-05T04:33:37.064Z,18.95
2016-11-05T04:34:48.831Z,18.92
2016-11-05T04:36:00.619Z,18.92
2016-11-05T04:37:12.011Z,18.88
2016-11-05T04:38:23.747Z,19.11
2016-11-05T04:39:35.065Z,19.09
2016-11-05T04:40:47.685Z,19.22
2016-11-05T04:41:59.850Z,19.33
2016-11-05T04:43:11.905Z,19.37
2016-11-05T04:44:24.577Z,19.29
2016-11-05T04:45:36.747Z,19.29
2016-11-05T04:46:49.267Z,19.22
2016-11-05T04:48:00.984Z,19.16
2016-11-05T04:49:13.129Z,19.19
2016-11-05T04:50:24.990Z,19.21
2016-11-05T04:51:37.596Z,19.19
2016-11-05T04:52:49.302Z,19.29
2016-11-05T04:54:00.560Z,19.21
2016-11-05T04:55:12.049Z,19.24
2016-11-05T04:56:24.289Z,18.92
2016-11-05T04:57:36.220Z,18.74
2016-11-05T04:58:47.887Z,18.86
2016-11-05T04:59:59.688Z,18.88
2016-11-05T05:01:11.489Z,18.86
2016-11-05T05:02:24.237Z,18.86
2016-11-05T05:03:35.880Z,18.95
2016-11-05T05:04:46.023Z,18.92
2016-11-05T05:05:57.665Z,18.89
2016-11-05T05:07:10.408Z,18.95
2016-11-05T05:08:22.117Z,18.95
2016-11-05T05:09:34.318Z,19
2016-11-05T05:10:44.951Z,18.99
2016-11-05T05:11:57.724Z,19.02
2016-11-05T05:13:09.259Z,19.02
2016-11-05T05:14:20.900Z,19
2016-11-05T05:15:33.110Z,19.09
2016-11-05T05:16:45.825Z,19.04
2016-11-05T05:17:57.097Z,19
2016-11-05T05:19:09.092Z,18.99
2016-11-05T05:20:20.461Z,19.07
2016-11-05T05:21:32.062Z,19.15
2016-11-05T05:22:44.328Z,19.15
2016-11-05T05:23:56.533Z,19.26
2016-11-05T05:25:09.089Z,19.24
2016-11-05T05:26:20.181Z,19.3
2016-11-05T05:27:31.121Z,19.29
2016-11-05T05:28:42.883Z,19.29
2016-11-05T05:29:56.050Z,19.24
2016-11-05T05:31:08.578Z,19.26
2016-11-05T05:32:21.736Z,19.26
2016-11-05T05:33:33.832Z,19.21
2016-11-05T05:34:45.014Z,19.29
2016-11-05T05:35:57.115Z,19.21
2016-11-05T05:37:10.226Z,19.24
2016-11-05T05:38:22.027Z,19.29
2016-11-05T05:39:33.315Z,19.44
2016-11-05T05:40:45.002Z,19.48
2016-11-05T05:41:57.775Z,19.41
2016-11-05T05:43:08.665Z,19.44
2016-11-05T05:44:20.089Z,19.48
2016-11-05T05:45:30.883Z,19.52
2016-11-05T05:46:43.044Z,19.55
2016-11-05T05:47:54.942Z,19.55
2016-11-05T05:49:05.733Z,19.56
2016-11-05T05:50:17.978Z,19.44
2016-11-05T05:51:29.518Z,19.51
2016-11-05T05:52:41.218Z,19.49
2016-11-05T05:53:53.089Z,19.45
2016-11-05T05:55:05.217Z,19.48
2016-11-05T05:56:16.769Z,19.47
2016-11-05T05:57:28.641Z,19.48
2016-11-05T05:58:41.059Z,19.49
2016-11-05T05:59:51.656Z,19.49
2016-11-05T06:01:04.921Z,19.49
2016-11-05T06:02:16.629Z,19.45
2016-11-05T06:03:28.808Z,19.47
2016-11-05T06:04:40.053Z,19.49
2016-11-05T06:05:52.720Z,19.48
2016-11-05T06:07:04.205Z,19.56
2016-11-05T06:08:14.921Z,19.56
2016-11-05T06:09:27.665Z,19.66
2016-11-05T06:10:40.796Z,19.79
2016-11-05T06:11:53.115Z,19.81
2016-11-05T06:13:04.954Z,19.85
2016-11-05T06:14:15.724Z,19.86
2016-11-05T06:15:28.255Z,19.89
2016-11-05T06:16:40.160Z,20.03
2016-11-05T06:17:51.390Z,20.1
2016-11-05T06:19:03.277Z,20
2016-11-05T06:20:16.390Z,19.99
2016-11-05T06:21:28.029Z,19.94
2016-11-05T06:22:40.034Z,19.96
2016-11-05T06:23:52.250Z,19.94
2016-11-05T06:25:04.023Z,19.96
2016-11-05T06:26:15.267Z,20
2016-11-05T06:27:27.805Z,20.03
2016-11-05T06:28:38.786Z,20.06
2016-11-05T06:29:49.772Z,20.21
2016-11-05T06:31:00.314Z,20.16
2016-11-05T06:32:11.324Z,20.07
2016-11-05T06:33:24.041Z,20.11
2016-11-05T06:34:36.577Z,20.11
2016-11-05T06:35:48.050Z,20.25
2016-11-05T06:37:00.318Z,20.21
2016-11-05T06:38:11.871Z,20.32
2016-11-05T06:39:22.974Z,20.26
2016-11-05T06:40:34.280Z,20.31
2016-11-05T06:41:45.192Z,20.26
2016-11-05T06:42:57.259Z,20.4
2016-11-05T06:44:09.207Z,20.52
2016-11-05T06:45:20.837Z,20.55
2016-11-05T06:46:33.153Z,20.6
2016-11-05T06:47:44.544Z,20.5
2016-11-05T06:48:56.329Z,20.56
2016-11-05T06:50:07.516Z,20.7
2016-11-05T06:51:19.821Z,20.72
2016-11-05T06:52:31.770Z,20.67
2016-11-05T06:53:43.860Z,20.78
2016-11-05T06:54:56.082Z,20.59
2016-11-05T06:56:08.253Z,20.66
2016-11-05T06:57:19.551Z,20.69
2016-11-05T06:58:31.166Z,20.62
2016-11-05T06:59:43.075Z,20.72
2016-11-05T07:00:55.447Z,20.8
2016-11-05T07:02:06.641Z,20.78
2016-11-05T07:03:17.526Z,20.7
2016-11-05T07:04:29.074Z,20.93
2016-11-05T07:05:40.881Z,20.82
2016-11-05T07:06:52.015Z,20.77
2016-11-05T07:08:03.963Z,20.77
2016-11-05T07:09:15.286Z,20.69
2016-11-05T07:10:26.468Z,20.62
2016-11-05T07:11:38.336Z,20.66
2016-11-05T07:12:50.966Z,20.58
2016-11-05T07:14:02.229Z,20.7
2016-11-05T07:15:13.748Z,20.77
2016-11-05T07:16:25.696Z,20.69
2016-11-05T07:17:36.948Z,20.87
2016-11-05T07:18:47.819Z,20.84
2016-11-05T07:19:59.102Z,20.87
2016-11-05T07:21:11.682Z,20.88
2016-11-05T07:22:23.163Z,20.92
2016-11-05T07:23:34.165Z,20.87
2016-11-05T07:24:45.043Z,20.92
2016-11-05T07:25:56.762Z,20.88
2016-11-05T07:27:07.756Z,20.85
2016-11-05T07:28:19.151Z,20.84
2016-11-05T07:29:32.447Z,20.81
2016-11-05T07:30:44.389Z,20.75
2016-11-05T07:31:56.016Z,20.85
2016-11-05T07:33:07.823Z,20.72
2016-11-05T07:34:18.794Z,20.87
2016-11-05T07:35:30.058Z,20.75
2016-11-05T07:36:40.998Z,20.67
2016-11-05T07:37:53.108Z,20.69
2016-11-05T07:39:05.792Z,20.75
2016-11-05T07:40:17.876Z,20.72
2016-11-05T07:41:29.822Z,20.67
2016-11-05T07:42:41.664Z,20.75
2016-11-05T07:43:53.315Z,20.74
2016-11-05T07:45:04.398Z,20.74
2016-11-05T07:46:17.168Z,20.67
2016-11-05T07:47:29.816Z,20.63
2016-11-05T07:48:41.793Z,20.65
2016-11-05T07:49:54.010Z,20.62
2016-11-05T07:51:06.652Z,20.63
2016-11-05T07:52:17.865Z,20.65
2016-11-05T07:53:31.089Z,20.66
2016-11-05T07:54:43.179Z,20.67
2016-11-05T07:55:56.419Z,20.6
2016-11-05T07:57:07.716Z,20.63
2016-11-05T07:58:18.623Z,20.66
2016-11-05T07:59:31.846Z,20.84
2016-11-05T08:00:41.864Z,20.92
2016-11-05T08:01:53.978Z,20.88
2016-11-05T08:03:06.704Z,21.05
2016-11-05T08:04:18.296Z,20.97
2016-11-05T08:05:29.608Z,21.06
2016-11-05T08:06:41.637Z,21
2016-11-05T08:07:53.049Z,21
2016-11-05T08:09:05.399Z,21.05
2016-11-05T08:10:17.265Z,21.15
2016-11-05T08:11:29.330Z,21.2
2016-11-05T08:12:40.978Z,21.22
2016-11-05T08:13:52.462Z,21.22
2016-11-05T08:15:03.760Z,21.2
2016-11-05T08:16:14.923Z,21.11
2016-11-05T08:17:27.560Z,21.05
2016-11-05T08:18:38.430Z,21.09
2016-11-05T08:19:49.848Z,21.14
2016-11-05T08:21:01.963Z,21.21
2016-11-05T08:22:13.820Z,21.17
2016-11-05T08:23:25.160Z,21.22
2016-11-05T08:24:37.106Z,21.25
2016-11-05T08:25:49.545Z,21.29
2016-11-05T08:27:02.121Z,21.3
2016-11-05T08:28:14.327Z,21.48
2016-11-05T08:29:25.990Z,21.62
2016-11-05T08:30:37.238Z,21.66
2016-11-05T08:31:48.036Z,21.64
2016-11-05T08:32:59.527Z,21.64
2016-11-05T08:34:11.252Z,21.62
2016-11-05T08:35:24.342Z,21.57
2016-11-05T08:36:36.605Z,21.55
2016-11-05T08:37:48.603Z,21.52
2016-11-05T08:38:59.617Z,21.42
2016-11-05T08:40:10.278Z,21.52
2016-11-05T08:41:20.931Z,21.89
2016-11-05T08:42:31.994Z,21.8
2016-11-05T08:43:44.341Z,22.29
2016-11-05T08:44:56.694Z,22.72
2016-11-05T08:46:08.694Z,22.5
2016-11-05T08:47:20.588Z,22.22
2016-11-05T08:48:31.830Z,21.91
2016-11-05T08:49:43.221Z,21.85
2016-11-05T08:50:54.857Z,21.93
2016-11-05T08:52:07.643Z,21.83
2016-11-05T08:53:19.752Z,21.69
2016-11-05T08:54:30.731Z,21.67
2016-11-05T08:55:42.555Z,21.66
2016-11-05T08:56:53.764Z,21.76
2016-11-05T08:58:04.173Z,21.75
2016-11-05T08:59:16.587Z,21.66
2016-11-05T09:00:27.639Z,21.7
2016-11-05T09:01:39.334Z,21.61
2016-11-05T09:02:51.455Z,21.83
2016-11-05T09:04:02.801Z,22
2016-11-05T09:05:13.446Z,21.98
2016-11-05T09:06:24.678Z,22.07
2016-11-05T09:07:36.655Z,22.32
2016-11-05T09:08:47.678Z,22.26
2016-11-05T09:09:59.878Z,22.28
2016-11-05T09:11:11.678Z,22.47
2016-11-05T09:12:22.881Z,22.44
2016-11-05T09:13:34.722Z,22.5
2016-11-05T09:14:46.947Z,22.6
2016-11-05T09:15:58.213Z,22.72
2016-11-05T09:17:10.108Z,22.59
2016-11-05T09:18:21.922Z,22.7
2016-11-05T09:19:33.844Z,22.73
2016-11-05T09:20:44.432Z,22.45
2016-11-05T09:21:56.568Z,22.59
2016-11-05T09:23:08.822Z,22.55
2016-11-05T09:24:19.705Z,22.68
2016-11-05T09:25:30.956Z,22.51
2016-11-05T09:26:41.820Z,22.8
2016-11-05T09:27:53.649Z,22.81
2016-11-05T09:29:05.255Z,22.94
2016-11-05T09:30:15.371Z,23.15
2016-11-05T09:31:27.125Z,23.46
2016-11-05T09:32:39.138Z,23.54
2016-11-05T09:33:51.040Z,23.24
2016-11-05T09:35:01.920Z,23.36
2016-11-05T09:36:13.093Z,23.93
2016-11-05T09:37:25.826Z,24.1
2016-11-05T09:38:39.011Z,23.96
2016-11-05T09:39:50.380Z,23.87
2016-11-05T09:41:00.477Z,24.1
2016-11-05T09:42:11.320Z,24.16
2016-11-05T09:43:22.702Z,24.02
2016-11-05T09:44:35.450Z,23.86
2016-11-05T09:45:46.729Z,23.55
2016-11-05T09:46:58.468Z,23.58
2016-11-05T09:48:09.680Z,23.55
2016-11-05T09:49:20.929Z,23.41
2016-11-05T09:50:32.450Z,23.47
2016-11-05T09:51:43.163Z,23.13
2016-11-05T09:52:53.883Z,23.32
2016-11-05T09:54:05.511Z,23.46
2016-11-05T09:55:17.205Z,23.4
2016-11-05T09:56:28.554Z,23.32
2016-11-05T09:57:40.229Z,23.58
2016-11-05T09:58:51.312Z,23.92
2016-11-05T10:00:03.165Z,24.06
2016-11-05T10:01:15.086Z,24.02
2016-11-05T10:02:27.581Z,23.87
2016-11-05T10:03:38.825Z,23.95
2016-11-05T10:04:49.875Z,24.03
2016-11-05T10:06:01.552Z,23.83
2016-11-05T10:07:13.142Z,24.13
2016-11-05T10:08:24.509Z,23.92
2016-11-05T10:09:36.137Z,23.71
2016-11-05T10:10:47.097Z,23.43
2016-11-05T10:11:59.357Z,23.05
2016-11-05T10:13:11.017Z,22.94
2016-11-05T10:14:22.903Z,22.8
2016-11-05T10:15:35.152Z,22.84
2016-11-05T10:16:48.291Z,23.02
2016-11-05T10:17:59.797Z,22.87
2016-11-05T10:19:11.430Z,22.7
2016-11-05T10:20:23.468Z,22.7
2016-11-05T10:21:35.465Z,22.57
2016-11-05T10:22:48.151Z,22.48
2016-11-05T10:23:59.158Z,22.45
2016-11-05T10:25:11.838Z,22.41
2016-11-05T10:26:23.594Z,22.45
2016-11-05T10:27:36.394Z,22.44
2016-11-05T10:28:47.467Z,22.43
2016-11-05T10:29:59.161Z,22.35
2016-11-05T10:31:11.249Z,22.29
2016-11-05T10:32:24.470Z,22.44
2016-11-05T10:33:34.684Z,22.39
2016-11-05T10:34:46.660Z,22.57
2016-11-05T10:35:56.846Z,22.54
2016-11-05T10:37:08.169Z,22.7
2016-11-05T10:38:19.773Z,22.66
2016-11-05T10:39:31.430Z,22.6
2016-11-05T10:40:42.370Z,22.6
2016-11-05T10:41:53.146Z,23.03
2016-11-05T10:43:04.525Z,23.17
2016-11-05T10:44:17.794Z,22.9
2016-11-05T10:45:30.111Z,22.87
2016-11-05T10:46:41.558Z,23.23
2016-11-05T10:47:53.362Z,23.34
2016-11-05T10:49:04.060Z,23.47
2016-11-05T10:50:16.273Z,23.39
2016-11-05T10:51:28.946Z,23.4
2016-11-05T10:52:41.985Z,23.41
2016-11-05T10:53:53.860Z,23.58
2016-11-05T10:55:05.257Z,23.63
2016-11-05T10:56:16.770Z,23.48
2016-11-05T10:57:28.648Z,23.69
2016-11-05T10:58:40.561Z,24.01
2016-11-05T10:59:52.749Z,23.78
2016-11-05T11:01:04.046Z,23.95
2016-11-05T11:02:15.913Z,24.33
2016-11-05T11:03:27.914Z,24.51
2016-11-05T11:04:40.198Z,24.48
2016-11-05T11:05:52.610Z,24.24
2016-11-05T11:07:03.914Z,24.11
2016-11-05T11:08:15.864Z,23.95
2016-11-05T11:09:28.276Z,24.03
2016-11-05T11:10:39.811Z,23.77
2016-11-05T11:11:52.324Z,23.55
2016-11-05T11:13:03.221Z,23.62
2016-11-05T11:14:15.284Z,23.76
2016-11-05T11:15:25.630Z,23.71
2016-11-05T11:16:37.221Z,23.81
2016-11-05T11:17:48.825Z,23.86
2016-11-05T11:18:59.649Z,23.96
2016-11-05T11:20:12.234Z,23.93
2016-11-05T11:21:24.406Z,23.95
2016-11-05T11:22:36.171Z,23.96
2016-11-05T11:23:47.424Z,23.91
2016-11-05T11:24:58.388Z,23.68
2016-11-05T11:26:10.213Z,23.69
2016-11-05T11:27:21.892Z,23.78
2016-11-05T11:28:32.562Z,24.33
2016-11-05T11:29:44.810Z,24.5
2016-11-05T11:30:57.107Z,24.85
2016-11-05T11:32:08.444Z,24.53
2016-11-05T11:33:19.498Z,24.68
2016-11-05T11:34:29.559Z,24.76
2016-11-05T11:35:41.692Z,24.5
2016-11-05T11:36:54.278Z,24.42
2016-11-05T11:38:04.120Z,24.21
2016-11-05T11:39:15.193Z,23.98
2016-11-05T11:40:27.362Z,23.83
2016-11-05T11:41:39.130Z,23.99
2016-11-05T11:42:51.272Z,23.86
2016-11-05T11:44:03.398Z,24.05
2016-11-05T11:45:15.051Z,24.14
2016-11-05T11:46:26.601Z,24.18
2016-11-05T11:47:39.022Z,24.24
2016-11-05T11:48:51.765Z,24.1
2016-11-05T11:50:03.908Z,23.98
2016-11-05T11:51:14.923Z,24.02
2016-11-05T11:52:26.962Z,24.13
2016-11-05T11:53:38.750Z,24.14
2016-11-05T11:54:49.898Z,24.24
2016-11-05T11:56:01.599Z,24.29
2016-11-05T11:57:13.461Z,24.17
2016-11-05T11:58:25.741Z,24.02
2016-11-05T11:59:36.828Z,24.13
2016-11-05T12:00:48.623Z,24.1
2016-11-05T12:02:00.498Z,23.96
2016-11-05T12:03:12.618Z,23.86
2016-11-05T12:04:23.362Z,23.91
2016-11-05T12:05:35.353Z,24.01
2016-11-05T12:06:47.393Z,23.98
2016-11-05T12:07:58.882Z,23.91
2016-11-05T12:09:09.231Z,23.99
2016-11-05T12:10:20.533Z,24.11
2016-11-05T12:11:32.772Z,24.2
2016-11-05T12:12:44.484Z,24.13
2016-11-05T12:13:57.211Z,24.2
2016-11-05T12:15:07.758Z,24.16
2016-11-05T12:16:20.301Z,24.16
2016-11-05T12:17:32.268Z,24.28
2016-11-05T12:18:44.383Z,24.17
2016-11-05T12:19:55.444Z,24.08
2016-11-05T12:21:07.493Z,24.03
2016-11-05T12:22:19.583Z,24.08
2016-11-05T12:23:31.387Z,24.02
2016-11-05T12:24:43.435Z,24.03
2016-11-05T12:25:56.556Z,24.11
2016-11-05T12:27:07.879Z,24.02
2016-11-05T12:28:19.282Z,24.17
2016-11-05T12:29:30.649Z,23.96
2016-11-05T12:30:42.008Z,24.02
2016-11-05T12:31:53.960Z,24.08
2016-11-05T12:33:05.228Z,23.95
2016-11-05T12:34:15.743Z,24.02
2016-11-05T12:35:28.013Z,24.06
2016-11-05T12:36:38.680Z,24.01
2016-11-05T12:37:51.698Z,24.14
2016-11-05T12:39:03.692Z,24.21
2016-11-05T12:40:16.870Z,24.17
2016-11-05T12:41:28.755Z,24.1
2016-11-05T12:42:40.797Z,24.03
2016-11-05T12:43:52.427Z,24.16
2016-11-05T12:45:05.176Z,24.08
2016-11-05T12:46:16.233Z,24.24
2016-11-05T12:47:28.403Z,24.28
2016-11-05T12:48:39.702Z,24.14
2016-11-05T12:49:51.801Z,24.21
2016-11-05T12:51:03.329Z,24.28
2016-11-05T12:52:14.323Z,24.23
2016-11-05T12:53:26.871Z,24.17
2016-11-05T12:54:38.522Z,24.26
2016-11-05T12:55:51.099Z,24.28
2016-11-05T12:57:03.661Z,24.43
2016-11-05T12:58:15.486Z,24.35
2016-11-05T12:59:27.882Z,24.42
2016-11-05T13:00:38.710Z,24.28
2016-11-05T13:01:50.113Z,24.2
2016-11-05T13:03:01.980Z,24.23
2016-11-05T13:04:13.673Z,24.42
2016-11-05T13:05:24.761Z,24.54
2016-11-05T13:06:36.811Z,24.39
2016-11-05T13:07:48.547Z,24.33
2016-11-05T13:08:59.470Z,24.29
2016-11-05T13:10:10.522Z,24.35
2016-11-05T13:11:21.482Z,24.33
2016-11-05T13:12:33.481Z,24.32
2016-11-05T13:13:45.448Z,24.43
2016-11-05T13:14:56.857Z,24.36
2016-11-05T13:16:08.246Z,24.48
2016-11-05T13:17:19.057Z,24.45
2016-11-05T13:18:31.237Z,24.38
2016-11-05T13:19:43.940Z,24.39
2016-11-05T13:20:55.398Z,24.36
2016-11-05T13:22:06.510Z,24.28
2016-11-05T13:23:17.249Z,24.28
2016-11-05T13:24:27.825Z,24.28
2016-11-05T13:25:38.784Z,24.26
2016-11-05T13:26:51.364Z,24.43
2016-11-05T13:28:03.664Z,24.35
2016-11-05T13:29:14.935Z,24.38
2016-11-05T13:30:26.864Z,24.23
2016-11-05T13:31:38.950Z,24.16
2016-11-05T13:32:50.499Z,24.23
2016-11-05T13:34:03.255Z,24.26
2016-11-05T13:35:14.680Z,24.24
2016-11-05T13:36:26.413Z,24.33
2016-11-05T13:37:37.507Z,24.28
2016-11-05T13:38:49.068Z,24.32
2016-11-05T13:40:00.501Z,24.17
2016-11-05T13:41:12.258Z,24.17
2016-11-05T13:42:22.576Z,24.16
2016-11-05T13:43:34.239Z,24.2
2016-11-05T13:44:46.808Z,24.17
2016-11-05T13:45:58.744Z,24.17
2016-11-05T13:47:11.058Z,24.23
2016-11-05T13:48:22.089Z,24.21
2016-11-05T13:49:34.294Z,24.08
2016-11-05T13:50:47.491Z,24.14
2016-11-05T13:51:58.989Z,24.02
2016-11-05T13:53:11.135Z,23.91
2016-11-05T13:54:22.101Z,23.8
2016-11-05T13:55:34.822Z,23.8
2016-11-05T13:56:45.834Z,23.86
2016-11-05T13:57:57.210Z,23.87
2016-11-05T13:59:09.484Z,23.86
2016-11-05T14:00:21.374Z,23.91
2016-11-05T14:01:34.214Z,23.96
2016-11-05T14:02:46.279Z,23.87
2016-11-05T14:03:57.890Z,23.96
2016-11-05T14:05:11.138Z,23.96
2016-11-05T14:06:24.391Z,23.81
2016-11-05T14:07:35.525Z,23.91
2016-11-05T14:08:47.910Z,24.03
2016-11-05T14:09:59.859Z,24.02
2016-11-05T14:11:10.422Z,23.96
2016-11-05T14:12:21.461Z,23.88
2016-11-05T14:13:33.210Z,24.13
2016-11-05T14:14:44.177Z,24.13
2016-11-05T14:15:56.331Z,24.11
2016-11-05T14:17:08.492Z,24.17
2016-11-05T14:18:20.612Z,24.21
2016-11-05T14:19:31.780Z,24.24
2016-11-05T14:20:41.427Z,24.32
2016-11-05T14:21:52.691Z,24.17
2016-11-05T14:23:04.336Z,24.24
2016-11-05T14:24:16.067Z,24.18
2016-11-05T14:25:28.619Z,24.23
2016-11-05T14:26:39.695Z,24.16
2016-11-05T14:27:50.299Z,24.23
2016-11-05T14:29:02.519Z,24.26
2016-11-05T14:30:14.349Z,24.1
2016-11-05T14:31:25.219Z,24.1
2016-11-05T14:32:36.919Z,24.16
2016-11-05T14:33:48.389Z,23.98
2016-11-05T14:35:00.239Z,23.93
2016-11-05T14:36:10.654Z,24.08
2016-11-05T14:37:21.483Z,23.91
2016-11-05T14:38:33.937Z,24.05
2016-11-05T14:39:44.811Z,24.05
2016-11-05T14:40:55.901Z,24.28
2016-11-05T14:42:07.152Z,24.18
2016-11-05T14:43:18.958Z,24.21
2016-11-05T14:44:28.798Z,24.23
2016-11-05T14:45:40.152Z,24.23
2016-11-05T14:46:52.091Z,24.24
2016-11-05T14:48:02.985Z,24.14
2016-11-05T14:49:14.854Z,24.16
2016-11-05T14:50:25.513Z,24.08
2016-11-05T14:51:37.304Z,24.03
2016-11-05T14:52:48.137Z,24.06
2016-11-05T14:54:00.878Z,24.16
2016-11-05T14:55:12.231Z,24.16
2016-11-05T14:56:25.458Z,24.14
2016-11-05T14:57:37.251Z,24.08
2016-11-05T14:58:48.761Z,24.13
2016-11-05T14:59:59.882Z,23.99
2016-11-05T15:01:12.006Z,23.98
2016-11-05T15:02:23.400Z,23.95
2016-11-05T15:03:34.316Z,23.81
2016-11-05T15:04:46.433Z,23.83
2016-11-05T15:05:58.361Z,23.71
2016-11-05T15:07:11.136Z,23.68
2016-11-05T15:08:23.687Z,23.71
2016-11-05T15:09:34.809Z,23.83
2016-11-05T15:10:45.651Z,23.8
2016-11-05T15:11:57.416Z,23.81
2016-11-05T15:13:09.959Z,23.73
2016-11-05T15:14:21.285Z,23.8
2016-11-05T15:15:32.648Z,23.87
2016-11-05T15:16:44.451Z,23.81
2016-11-05T15:17:56.164Z,23.65
2016-11-05T15:19:08.412Z,23.63
2016-11-05T15:20:19.449Z,23.59
2016-11-05T15:21:30.481Z,23.56
2016-11-05T15:22:43.234Z,23.51
2016-11-05T15:23:53.961Z,23.63
2016-11-05T15:25:04.411Z,23.55
2016-11-05T15:26:15.214Z,23.58
2016-11-05T15:27:26.983Z,23.5